sensor_id;sensor_type;location;lat;lon;timestamp;P1;durP1;ratioP1;P2;durP2;ratioP2
69327;SDS011;56472;52.114;5.492;2023-07-28T00:01:55;1.33;;;1.23;;
69327;SDS011;56472;52.114;5.492;2023-07-28T00:04:22;1.38;;;1.30;;
69327;SDS011;56472;52.114;5.492;2023-07-28T00:06:49;1.25;;;1.25;;
69327;SDS011;56472;52.114;5.492;2023-07-28T00:09:16;1.30;;;1.20;;
69327;SDS011;56472;52.114;5.492;2023-07-28T00:11:42;1.50;;;1.45;;
69327;SDS011;56472;52.114;5.492;2023-07-28T00:14:09;1.25;;;1.25;;
69327;SDS011;56472;52.114;5.492;2023-07-28T00:16:36;1.70;;;1.60;;
69327;SDS011;56472;52.114;5.492;2023-07-28T00:19:03;1.25;;;1.20;;
69327;SDS011;56472;52.114;5.492;2023-07-28T00:21:30;2.35;;;1.70;;
69327;SDS011;56472;52.114;5.492;2023-07-28T00:23:57;1.92;;;1.30;;
69327;SDS011;56472;52.114;5.492;2023-07-28T00:26:24;1.50;;;1.50;;
69327;SDS011;56472;52.114;5.492;2023-07-28T00:28:51;1.65;;;1.55;;
69327;SDS011;56472;52.114;5.492;2023-07-28T00:31:18;1.48;;;1.48;;
69327;SDS011;56472;52.114;5.492;2023-07-28T00:33:45;2.63;;;1.73;;
69327;SDS011;56472;52.114;5.492;2023-07-28T00:36:12;1.73;;;1.50;;
69327;SDS011;56472;52.114;5.492;2023-07-28T00:38:39;2.40;;;1.70;;
69327;SDS011;56472;52.114;5.492;2023-07-28T00:41:06;1.70;;;1.60;;
69327;SDS011;56472;52.114;5.492;2023-07-28T00:43:32;1.63;;;1.52;;
69327;SDS011;56472;52.114;5.492;2023-07-28T00:45:59;1.52;;;1.42;;
69327;SDS011;56472;52.114;5.492;2023-07-28T00:48:26;1.70;;;1.60;;
69327;SDS011;56472;52.114;5.492;2023-07-28T00:50:53;1.80;;;1.70;;
69327;SDS011;56472;52.114;5.492;2023-07-28T00:53:21;2.00;;;1.63;;
69327;SDS011;56472;52.114;5.492;2023-07-28T00:55:49;1.50;;;1.42;;
69327;SDS011;56472;52.114;5.492;2023-07-28T00:58:18;1.67;;;1.67;;
69327;SDS011;56472;52.114;5.492;2023-07-28T01:00:45;1.70;;;1.70;;
69327;SDS011;56472;52.114;5.492;2023-07-28T01:03:12;4.30;;;1.80;;
69327;SDS011;56472;52.114;5.492;2023-07-28T01:05:43;1.88;;;1.75;;
69327;SDS011;56472;52.114;5.492;2023-07-28T01:08:33;1.80;;;1.70;;
69327;SDS011;56472;52.114;5.492;2023-07-28T01:11:05;2.78;;;1.80;;
69327;SDS011;56472;52.114;5.492;2023-07-28T01:13:31;1.98;;;1.88;;
69327;SDS011;56472;52.114;5.492;2023-07-28T01:15:58;1.63;;;1.60;;
69327;SDS011;56472;52.114;5.492;2023-07-28T01:18:27;2.45;;;1.65;;
69327;SDS011;56472;52.114;5.492;2023-07-28T01:20:55;1.85;;;1.75;;
69327;SDS011;56472;52.114;5.492;2023-07-28T01:23:34;1.92;;;1.67;;
69327;SDS011;56472;52.114;5.492;2023-07-28T01:26:13;1.77;;;1.67;;
69327;SDS011;56472;52.114;5.492;2023-07-28T01:28:42;1.92;;;1.52;;
69327;SDS011;56472;52.114;5.492;2023-07-28T01:31:10;1.67;;;1.58;;
69327;SDS011;56472;52.114;5.492;2023-07-28T01:33:37;2.78;;;1.67;;
69327;SDS011;56472;52.114;5.492;2023-07-28T01:36:04;1.48;;;1.48;;
69327;SDS011;56472;52.114;5.492;2023-07-28T01:38:31;1.80;;;1.70;;
69327;SDS011;56472;52.114;5.492;2023-07-28T01:40:58;2.00;;;1.90;;
69327;SDS011;56472;52.114;5.492;2023-07-28T01:43:25;2.10;;;2.00;;
69327;SDS011;56472;52.114;5.492;2023-07-28T01:45:51;2.15;;;2.03;;
69327;SDS011;56472;52.114;5.492;2023-07-28T01:48:18;1.83;;;1.73;;
69327;SDS011;56472;52.114;5.492;2023-07-28T01:50:45;1.98;;;1.88;;
69327;SDS011;56472;52.114;5.492;2023-07-28T01:53:12;1.80;;;1.70;;
69327;SDS011;56472;52.114;5.492;2023-07-28T01:55:39;1.95;;;1.67;;
69327;SDS011;56472;52.114;5.492;2023-07-28T01:58:06;2.35;;;1.77;;
69327;SDS011;56472;52.114;5.492;2023-07-28T02:00:33;1.73;;;1.63;;
69327;SDS011;56472;52.114;5.492;2023-07-28T02:02:59;1.90;;;1.80;;
69327;SDS011;56472;52.114;5.492;2023-07-28T02:05:29;1.77;;;1.67;;
69327;SDS011;56472;52.114;5.492;2023-07-28T02:07:56;2.60;;;1.88;;
69327;SDS011;56472;52.114;5.492;2023-07-28T02:10:23;2.00;;;1.90;;
69327;SDS011;56472;52.114;5.492;2023-07-28T02:12:52;2.00;;;1.90;;
69327;SDS011;56472;52.114;5.492;2023-07-28T02:15:19;3.25;;;1.98;;
69327;SDS011;56472;52.114;5.492;2023-07-28T02:17:46;2.20;;;2.10;;
69327;SDS011;56472;52.114;5.492;2023-07-28T02:20:13;2.03;;;1.90;;
69327;SDS011;56472;52.114;5.492;2023-07-28T02:22:42;2.17;;;1.92;;
69327;SDS011;56472;52.114;5.492;2023-07-28T02:25:09;2.25;;;2.05;;
69327;SDS011;56472;52.114;5.492;2023-07-28T02:27:37;2.72;;;2.03;;
69327;SDS011;56472;52.114;5.492;2023-07-28T02:30:05;2.20;;;2.10;;
69327;SDS011;56472;52.114;5.492;2023-07-28T02:32:32;3.15;;;2.20;;
69327;SDS011;56472;52.114;5.492;2023-07-28T02:34:59;3.83;;;2.50;;
69327;SDS011;56472;52.114;5.492;2023-07-28T02:37:26;2.95;;;2.10;;
69327;SDS011;56472;52.114;5.492;2023-07-28T02:39:53;2.60;;;2.10;;
69327;SDS011;56472;52.114;5.492;2023-07-28T02:42:20;2.17;;;2.08;;
69327;SDS011;56472;52.114;5.492;2023-07-28T02:44:47;2.00;;;1.90;;
69327;SDS011;56472;52.114;5.492;2023-07-28T02:47:14;2.50;;;2.30;;
69327;SDS011;56472;52.114;5.492;2023-07-28T02:49:41;2.40;;;2.20;;
69327;SDS011;56472;52.114;5.492;2023-07-28T02:52:09;2.45;;;2.25;;
69327;SDS011;56472;52.114;5.492;2023-07-28T02:54:36;2.40;;;2.20;;
69327;SDS011;56472;52.114;5.492;2023-07-28T02:57:03;2.50;;;2.08;;
69327;SDS011;56472;52.114;5.492;2023-07-28T02:59:30;2.20;;;1.90;;
69327;SDS011;56472;52.114;5.492;2023-07-28T03:01:57;2.17;;;1.98;;
69327;SDS011;56472;52.114;5.492;2023-07-28T03:04:24;2.30;;;2.10;;
69327;SDS011;56472;52.114;5.492;2023-07-28T03:07:09;3.58;;;2.67;;
69327;SDS011;56472;52.114;5.492;2023-07-28T03:09:42;2.22;;;2.05;;
69327;SDS011;56472;52.114;5.492;2023-07-28T03:12:10;2.10;;;2.00;;
69327;SDS011;56472;52.114;5.492;2023-07-28T03:14:38;2.60;;;2.42;;
69327;SDS011;56472;52.114;5.492;2023-07-28T03:17:04;3.53;;;2.70;;
69327;SDS011;56472;52.114;5.492;2023-07-28T03:19:31;2.38;;;2.28;;
69327;SDS011;56472;52.114;5.492;2023-07-28T03:21:58;3.05;;;2.25;;
69327;SDS011;56472;52.114;5.492;2023-07-28T03:24:25;2.22;;;2.13;;
69327;SDS011;56472;52.114;5.492;2023-07-28T03:26:52;3.00;;;2.40;;
69327;SDS011;56472;52.114;5.492;2023-07-28T03:29:18;2.85;;;2.35;;
69327;SDS011;56472;52.114;5.492;2023-07-28T03:31:46;3.47;;;2.65;;
69327;SDS011;56472;52.114;5.492;2023-07-28T03:34:13;2.80;;;2.55;;
69327;SDS011;56472;52.114;5.492;2023-07-28T03:36:40;2.70;;;2.50;;
69327;SDS011;56472;52.114;5.492;2023-07-28T03:39:07;4.55;;;2.05;;
69327;SDS011;56472;52.114;5.492;2023-07-28T03:41:34;2.75;;;2.50;;
69327;SDS011;56472;52.114;5.492;2023-07-28T03:44:01;2.70;;;2.50;;
69327;SDS011;56472;52.114;5.492;2023-07-28T03:46:28;2.78;;;2.47;;
69327;SDS011;56472;52.114;5.492;2023-07-28T03:48:56;2.80;;;2.60;;
69327;SDS011;56472;52.114;5.492;2023-07-28T03:51:24;3.05;;;2.50;;
69327;SDS011;56472;52.114;5.492;2023-07-28T03:53:51;2.78;;;2.50;;
69327;SDS011;56472;52.114;5.492;2023-07-28T03:56:18;3.97;;;2.40;;
69327;SDS011;56472;52.114;5.492;2023-07-28T03:58:45;2.80;;;2.58;;
69327;SDS011;56472;52.114;5.492;2023-07-28T04:01:12;2.70;;;2.50;;
69327;SDS011;56472;52.114;5.492;2023-07-28T04:03:40;4.65;;;2.55;;
69327;SDS011;56472;52.114;5.492;2023-07-28T04:06:10;3.13;;;2.75;;
69327;SDS011;56472;52.114;5.492;2023-07-28T04:08:40;3.78;;;2.67;;
69327;SDS011;56472;52.114;5.492;2023-07-28T04:11:07;2.67;;;2.47;;
69327;SDS011;56472;52.114;5.492;2023-07-28T04:13:34;4.35;;;2.70;;
69327;SDS011;56472;52.114;5.492;2023-07-28T04:16:01;2.90;;;2.55;;
69327;SDS011;56472;52.114;5.492;2023-07-28T04:18:28;3.72;;;2.58;;
69327;SDS011;56472;52.114;5.492;2023-07-28T04:20:55;2.63;;;2.42;;
69327;SDS011;56472;52.114;5.492;2023-07-28T04:23:22;4.82;;;2.90;;
69327;SDS011;56472;52.114;5.492;2023-07-28T04:25:49;3.30;;;2.72;;
69327;SDS011;56472;52.114;5.492;2023-07-28T04:28:15;2.72;;;2.53;;
69327;SDS011;56472;52.114;5.492;2023-07-28T04:30:43;4.32;;;2.90;;
69327;SDS011;56472;52.114;5.492;2023-07-28T04:33:22;3.33;;;2.90;;
69327;SDS011;56472;52.114;5.492;2023-07-28T04:35:50;7.72;;;3.30;;
69327;SDS011;56472;52.114;5.492;2023-07-28T04:38:22;3.13;;;2.67;;
69327;SDS011;56472;52.114;5.492;2023-07-28T04:40:54;3.97;;;2.88;;
69327;SDS011;56472;52.114;5.492;2023-07-28T04:43:29;5.35;;;3.05;;
69327;SDS011;56472;52.114;5.492;2023-07-28T04:45:56;3.20;;;2.83;;
69327;SDS011;56472;52.114;5.492;2023-07-28T04:48:24;3.50;;;2.85;;
69327;SDS011;56472;52.114;5.492;2023-07-28T04:50:51;3.20;;;2.90;;
69327;SDS011;56472;52.114;5.492;2023-07-28T04:53:20;2.72;;;2.53;;
69327;SDS011;56472;52.114;5.492;2023-07-28T04:56:13;4.35;;;2.90;;
69327;SDS011;56472;52.114;5.492;2023-07-28T04:58:40;4.78;;;3.13;;
69327;SDS011;56472;52.114;5.492;2023-07-28T05:01:07;3.13;;;2.78;;
69327;SDS011;56472;52.114;5.492;2023-07-28T05:03:36;3.17;;;2.90;;
69327;SDS011;56472;52.114;5.492;2023-07-28T05:06:16;2.70;;;2.40;;
69327;SDS011;56472;52.114;5.492;2023-07-28T05:08:44;2.85;;;2.65;;
69327;SDS011;56472;52.114;5.492;2023-07-28T05:11:12;3.30;;;2.97;;
69327;SDS011;56472;52.114;5.492;2023-07-28T05:13:39;3.90;;;2.67;;
69327;SDS011;56472;52.114;5.492;2023-07-28T05:16:06;2.70;;;2.25;;
69327;SDS011;56472;52.114;5.492;2023-07-28T05:18:51;2.38;;;2.17;;
69327;SDS011;56472;52.114;5.492;2023-07-28T05:21:47;5.70;;;2.80;;
69327;SDS011;56472;52.114;5.492;2023-07-28T05:24:16;4.05;;;2.95;;
69327;SDS011;56472;52.114;5.492;2023-07-28T05:26:44;3.33;;;2.90;;
69327;SDS011;56472;52.114;5.492;2023-07-28T05:29:11;5.22;;;3.15;;
69327;SDS011;56472;52.114;5.492;2023-07-28T05:31:39;4.80;;;3.05;;
69327;SDS011;56472;52.114;5.492;2023-07-28T05:34:15;3.42;;;2.60;;
69327;SDS011;56472;52.114;5.492;2023-07-28T05:36:42;3.00;;;2.70;;
69327;SDS011;56472;52.114;5.492;2023-07-28T05:39:10;2.72;;;2.53;;
69327;SDS011;56472;52.114;5.492;2023-07-28T05:41:41;4.03;;;3.00;;
69327;SDS011;56472;52.114;5.492;2023-07-28T05:44:09;4.13;;;2.75;;
69327;SDS011;56472;52.114;5.492;2023-07-28T05:46:36;4.70;;;3.20;;
69327;SDS011;56472;52.114;5.492;2023-07-28T05:49:03;5.65;;;2.97;;
69327;SDS011;56472;52.114;5.492;2023-07-28T05:51:30;3.60;;;2.60;;
69327;SDS011;56472;52.114;5.492;2023-07-28T05:53:58;3.15;;;2.88;;
69327;SDS011;56472;52.114;5.492;2023-07-28T05:56:26;3.90;;;2.65;;
69327;SDS011;56472;52.114;5.492;2023-07-28T05:58:53;2.90;;;2.63;;
69327;SDS011;56472;52.114;5.492;2023-07-28T06:01:20;2.30;;;2.20;;
69327;SDS011;56472;52.114;5.492;2023-07-28T06:04:05;2.45;;;2.25;;
69327;SDS011;56472;52.114;5.492;2023-07-28T06:06:39;3.20;;;2.90;;
69327;SDS011;56472;52.114;5.492;2023-07-28T06:09:06;2.88;;;2.67;;
69327;SDS011;56472;52.114;5.492;2023-07-28T06:11:33;3.97;;;3.15;;
69327;SDS011;56472;52.114;5.492;2023-07-28T06:14:02;2.97;;;2.78;;
69327;SDS011;56472;52.114;5.492;2023-07-28T06:16:32;3.90;;;2.92;;
69327;SDS011;56472;52.114;5.492;2023-07-28T06:18:59;2.65;;;2.50;;
69327;SDS011;56472;52.114;5.492;2023-07-28T06:21:26;3.42;;;2.30;;
69327;SDS011;56472;52.114;5.492;2023-07-28T06:23:53;3.90;;;2.50;;
69327;SDS011;56472;52.114;5.492;2023-07-28T06:26:19;2.60;;;2.30;;
69327;SDS011;56472;52.114;5.492;2023-07-28T06:28:46;2.83;;;2.63;;
69327;SDS011;56472;52.114;5.492;2023-07-28T06:31:13;3.28;;;2.97;;
69327;SDS011;56472;52.114;5.492;2023-07-28T06:33:40;3.15;;;2.40;;
69327;SDS011;56472;52.114;5.492;2023-07-28T06:36:07;3.00;;;2.80;;
69327;SDS011;56472;52.114;5.492;2023-07-28T06:38:34;3.22;;;2.90;;
69327;SDS011;56472;52.114;5.492;2023-07-28T06:41:01;8.82;;;3.50;;
69327;SDS011;56472;52.114;5.492;2023-07-28T06:43:28;2.95;;;2.50;;
69327;SDS011;56472;52.114;5.492;2023-07-28T06:45:54;2.85;;;2.65;;
69327;SDS011;56472;52.114;5.492;2023-07-28T06:48:22;3.35;;;3.00;;
69327;SDS011;56472;52.114;5.492;2023-07-28T06:50:48;3.30;;;3.00;;
69327;SDS011;56472;52.114;5.492;2023-07-28T06:53:16;2.78;;;2.58;;
69327;SDS011;56472;52.114;5.492;2023-07-28T06:55:43;2.95;;;2.75;;
69327;SDS011;56472;52.114;5.492;2023-07-28T06:58:10;4.60;;;2.97;;
69327;SDS011;56472;52.114;5.492;2023-07-28T07:00:37;3.50;;;2.90;;
69327;SDS011;56472;52.114;5.492;2023-07-28T07:03:05;3.03;;;2.83;;
69327;SDS011;56472;52.114;5.492;2023-07-28T07:05:32;3.45;;;3.17;;
69327;SDS011;56472;52.114;5.492;2023-07-28T07:07:58;3.20;;;2.53;;
69327;SDS011;56472;52.114;5.492;2023-07-28T07:10:27;4.53;;;3.80;;
69327;SDS011;56472;52.114;5.492;2023-07-28T07:12:53;6.03;;;3.08;;
69327;SDS011;56472;52.114;5.492;2023-07-28T07:15:22;3.30;;;3.10;;
69327;SDS011;56472;52.114;5.492;2023-07-28T07:17:49;4.50;;;3.70;;
69327;SDS011;56472;52.114;5.492;2023-07-28T07:20:16;3.63;;;3.33;;
69327;SDS011;56472;52.114;5.492;2023-07-28T07:22:43;6.47;;;3.10;;
69327;SDS011;56472;52.114;5.492;2023-07-28T07:25:09;3.22;;;2.90;;
69327;SDS011;56472;52.114;5.492;2023-07-28T07:27:36;3.03;;;2.83;;
69327;SDS011;56472;52.114;5.492;2023-07-28T07:30:03;3.78;;;3.38;;
69327;SDS011;56472;52.114;5.492;2023-07-28T07:32:32;3.70;;;3.40;;
69327;SDS011;56472;52.114;5.492;2023-07-28T07:34:59;6.75;;;2.83;;
69327;SDS011;56472;52.114;5.492;2023-07-28T07:37:26;4.43;;;3.47;;
69327;SDS011;56472;52.114;5.492;2023-07-28T07:39:53;3.35;;;3.05;;
69327;SDS011;56472;52.114;5.492;2023-07-28T07:42:21;4.10;;;2.85;;
69327;SDS011;56472;52.114;5.492;2023-07-28T07:44:48;3.25;;;2.95;;
69327;SDS011;56472;52.114;5.492;2023-07-28T07:47:15;3.20;;;3.00;;
69327;SDS011;56472;52.114;5.492;2023-07-28T07:49:42;3.30;;;3.00;;
69327;SDS011;56472;52.114;5.492;2023-07-28T07:52:09;3.72;;;3.08;;
69327;SDS011;56472;52.114;5.492;2023-07-28T07:54:36;3.08;;;2.88;;
69327;SDS011;56472;52.114;5.492;2023-07-28T07:57:03;3.30;;;3.03;;
69327;SDS011;56472;52.114;5.492;2023-07-28T07:59:31;3.50;;;3.22;;
69327;SDS011;56472;52.114;5.492;2023-07-28T08:02:01;3.25;;;2.97;;
69327;SDS011;56472;52.114;5.492;2023-07-28T08:04:29;3.13;;;2.80;;
69327;SDS011;56472;52.114;5.492;2023-07-28T08:06:58;4.03;;;3.35;;
69327;SDS011;56472;52.114;5.492;2023-07-28T08:09:25;5.90;;;2.63;;
69327;SDS011;56472;52.114;5.492;2023-07-28T08:11:51;3.17;;;2.97;;
69327;SDS011;56472;52.114;5.492;2023-07-28T08:14:19;3.53;;;2.88;;
69327;SDS011;56472;52.114;5.492;2023-07-28T08:16:46;2.85;;;2.65;;
69327;SDS011;56472;52.114;5.492;2023-07-28T08:19:13;2.88;;;2.72;;
69327;SDS011;56472;52.114;5.492;2023-07-28T08:21:39;3.38;;;3.08;;
69327;SDS011;56472;52.114;5.492;2023-07-28T08:24:06;4.15;;;3.15;;
69327;SDS011;56472;52.114;5.492;2023-07-28T08:26:33;4.20;;;2.80;;
69327;SDS011;56472;52.114;5.492;2023-07-28T08:29:00;2.80;;;2.60;;
69327;SDS011;56472;52.114;5.492;2023-07-28T08:31:27;3.67;;;2.50;;
69327;SDS011;56472;52.114;5.492;2023-07-28T08:33:54;3.10;;;2.90;;
69327;SDS011;56472;52.114;5.492;2023-07-28T08:36:21;4.20;;;2.97;;
69327;SDS011;56472;52.114;5.492;2023-07-28T08:38:47;2.40;;;2.30;;
69327;SDS011;56472;52.114;5.492;2023-07-28T08:41:15;2.72;;;2.40;;
69327;SDS011;56472;52.114;5.492;2023-07-28T08:43:41;4.13;;;2.80;;
69327;SDS011;56472;52.114;5.492;2023-07-28T08:46:09;3.67;;;2.90;;
69327;SDS011;56472;52.114;5.492;2023-07-28T08:48:36;2.60;;;2.40;;
69327;SDS011;56472;52.114;5.492;2023-07-28T08:51:03;3.03;;;2.58;;
69327;SDS011;56472;52.114;5.492;2023-07-28T08:53:34;2.90;;;2.65;;
69327;SDS011;56472;52.114;5.492;2023-07-28T08:56:01;2.28;;;2.17;;
69327;SDS011;56472;52.114;5.492;2023-07-28T08:58:32;2.10;;;2.00;;
69327;SDS011;56472;52.114;5.492;2023-07-28T09:00:59;2.67;;;2.42;;
69327;SDS011;56472;52.114;5.492;2023-07-28T09:03:29;2.42;;;2.30;;
69327;SDS011;56472;52.114;5.492;2023-07-28T09:05:59;2.40;;;2.30;;
69327;SDS011;56472;52.114;5.492;2023-07-28T09:08:27;1.90;;;1.80;;
69327;SDS011;56472;52.114;5.492;2023-07-28T09:10:57;2.50;;;2.30;;
69327;SDS011;56472;52.114;5.492;2023-07-28T09:13:39;5.30;;;2.20;;
69327;SDS011;56472;52.114;5.492;2023-07-28T09:16:19;2.50;;;2.30;;
69327;SDS011;56472;52.114;5.492;2023-07-28T09:18:47;2.30;;;2.10;;
69327;SDS011;56472;52.114;5.492;2023-07-28T09:21:17;3.17;;;2.25;;
69327;SDS011;56472;52.114;5.492;2023-07-28T09:23:48;2.30;;;2.10;;
69327;SDS011;56472;52.114;5.492;2023-07-28T09:26:15;2.25;;;2.05;;
69327;SDS011;56472;52.114;5.492;2023-07-28T09:28:42;3.03;;;2.08;;
69327;SDS011;56472;52.114;5.492;2023-07-28T09:31:09;2.10;;;1.95;;
69327;SDS011;56472;52.114;5.492;2023-07-28T09:33:37;1.80;;;1.70;;
69327;SDS011;56472;52.114;5.492;2023-07-28T09:36:09;1.98;;;1.88;;
69327;SDS011;56472;52.114;5.492;2023-07-28T09:38:38;1.88;;;1.77;;
69327;SDS011;56472;52.114;5.492;2023-07-28T09:41:10;2.00;;;1.90;;
69327;SDS011;56472;52.114;5.492;2023-07-28T09:43:38;3.17;;;1.90;;
69327;SDS011;56472;52.114;5.492;2023-07-28T09:46:07;2.00;;;1.67;;
69327;SDS011;56472;52.114;5.492;2023-07-28T09:48:34;2.20;;;2.00;;
69327;SDS011;56472;52.114;5.492;2023-07-28T09:51:38;2.03;;;1.80;;
69327;SDS011;56472;52.114;5.492;2023-07-28T09:54:04;2.17;;;2.00;;
69327;SDS011;56472;52.114;5.492;2023-07-28T09:56:37;2.15;;;1.92;;
69327;SDS011;56472;52.114;5.492;2023-07-28T09:59:07;2.60;;;2.08;;
69327;SDS011;56472;52.114;5.492;2023-07-28T10:01:38;1.73;;;1.63;;
69327;SDS011;56472;52.114;5.492;2023-07-28T10:04:07;1.80;;;1.70;;
69327;SDS011;56472;52.114;5.492;2023-07-28T10:06:34;1.80;;;1.70;;
69327;SDS011;56472;52.114;5.492;2023-07-28T10:09:04;1.90;;;1.80;;
69327;SDS011;56472;52.114;5.492;2023-07-28T10:11:34;3.67;;;1.60;;
69327;SDS011;56472;52.114;5.492;2023-07-28T10:14:02;1.80;;;1.70;;
69327;SDS011;56472;52.114;5.492;2023-07-28T10:16:38;1.77;;;1.67;;
69327;SDS011;56472;52.114;5.492;2023-07-28T10:19:06;2.10;;;1.90;;
69327;SDS011;56472;52.114;5.492;2023-07-28T10:21:33;1.77;;;1.67;;
69327;SDS011;56472;52.114;5.492;2023-07-28T10:24:07;2.25;;;1.50;;
69327;SDS011;56472;52.114;5.492;2023-07-28T10:26:35;1.83;;;1.73;;
69327;SDS011;56472;52.114;5.492;2023-07-28T10:29:12;1.65;;;1.55;;
69327;SDS011;56472;52.114;5.492;2023-07-28T10:31:51;1.58;;;1.48;;
69327;SDS011;56472;52.114;5.492;2023-07-28T10:34:19;1.65;;;1.55;;
69327;SDS011;56472;52.114;5.492;2023-07-28T10:36:56;2.55;;;1.65;;
69327;SDS011;56472;52.114;5.492;2023-07-28T10:39:26;2.03;;;1.92;;
69327;SDS011;56472;52.114;5.492;2023-07-28T10:42:00;1.50;;;1.50;;
69327;SDS011;56472;52.114;5.492;2023-07-28T10:44:27;1.58;;;1.55;;
69327;SDS011;56472;52.114;5.492;2023-07-28T10:46:54;1.80;;;1.70;;
69327;SDS011;56472;52.114;5.492;2023-07-28T10:49:21;2.22;;;2.03;;
69327;SDS011;56472;52.114;5.492;2023-07-28T10:51:50;1.95;;;1.85;;
69327;SDS011;56472;52.114;5.492;2023-07-28T10:54:17;1.63;;;1.55;;
69327;SDS011;56472;52.114;5.492;2023-07-28T10:56:46;2.00;;;1.90;;
69327;SDS011;56472;52.114;5.492;2023-07-28T10:59:14;1.52;;;1.52;;
69327;SDS011;56472;52.114;5.492;2023-07-28T11:01:41;1.63;;;1.55;;
69327;SDS011;56472;52.114;5.492;2023-07-28T11:04:19;1.88;;;1.77;;
69327;SDS011;56472;52.114;5.492;2023-07-28T11:06:47;1.75;;;1.65;;
69327;SDS011;56472;52.114;5.492;2023-07-28T11:09:19;1.70;;;1.60;;
69327;SDS011;56472;52.114;5.492;2023-07-28T11:11:48;1.80;;;1.70;;
69327;SDS011;56472;52.114;5.492;2023-07-28T11:14:16;1.88;;;1.77;;
69327;SDS011;56472;52.114;5.492;2023-07-28T11:16:44;1.98;;;1.88;;
69327;SDS011;56472;52.114;5.492;2023-07-28T11:19:14;2.13;;;1.98;;
69327;SDS011;56472;52.114;5.492;2023-07-28T11:21:41;2.28;;;1.90;;
69327;SDS011;56472;52.114;5.492;2023-07-28T11:24:09;2.58;;;2.38;;
69327;SDS011;56472;52.114;5.492;2023-07-28T11:26:37;2.20;;;2.10;;
69327;SDS011;56472;52.114;5.492;2023-07-28T11:29:05;2.40;;;2.30;;
69327;SDS011;56472;52.114;5.492;2023-07-28T11:31:32;2.42;;;2.33;;
69327;SDS011;56472;52.114;5.492;2023-07-28T11:34:00;2.30;;;2.17;;
69327;SDS011;56472;52.114;5.492;2023-07-28T11:36:28;2.30;;;2.20;;
69327;SDS011;56472;52.114;5.492;2023-07-28T11:38:59;2.25;;;2.15;;
69327;SDS011;56472;52.114;5.492;2023-07-28T11:41:27;2.38;;;2.28;;
69327;SDS011;56472;52.114;5.492;2023-07-28T11:43:54;2.65;;;2.45;;
69327;SDS011;56472;52.114;5.492;2023-07-28T11:46:40;2.47;;;2.38;;
69327;SDS011;56472;52.114;5.492;2023-07-28T11:49:13;2.50;;;2.40;;
69327;SDS011;56472;52.114;5.492;2023-07-28T11:51:49;2.85;;;2.65;;
69327;SDS011;56472;52.114;5.492;2023-07-28T11:54:18;2.47;;;2.28;;
69327;SDS011;56472;52.114;5.492;2023-07-28T11:56:49;2.40;;;2.30;;
69327;SDS011;56472;52.114;5.492;2023-07-28T11:59:17;2.55;;;2.45;;
69327;SDS011;56472;52.114;5.492;2023-07-28T12:04:24;1.88;;;1.77;;
69327;SDS011;56472;52.114;5.492;2023-07-28T12:07:10;2.30;;;2.20;;
69327;SDS011;56472;52.114;5.492;2023-07-28T12:12:16;2.58;;;2.38;;
69327;SDS011;56472;52.114;5.492;2023-07-28T12:14:47;2.28;;;2.17;;
69327;SDS011;56472;52.114;5.492;2023-07-28T12:17:34;3.22;;;2.20;;
69327;SDS011;56472;52.114;5.492;2023-07-28T12:20:06;2.38;;;2.28;;
69327;SDS011;56472;52.114;5.492;2023-07-28T12:22:38;2.38;;;2.25;;
69327;SDS011;56472;52.114;5.492;2023-07-28T12:25:07;2.45;;;2.25;;
69327;SDS011;56472;52.114;5.492;2023-07-28T12:27:34;2.00;;;1.90;;
69327;SDS011;56472;52.114;5.492;2023-07-28T12:30:02;3.15;;;2.60;;
69327;SDS011;56472;52.114;5.492;2023-07-28T12:32:30;2.30;;;2.15;;
69327;SDS011;56472;52.114;5.492;2023-07-28T12:35:02;2.10;;;2.00;;
69327;SDS011;56472;52.114;5.492;2023-07-28T12:37:31;2.40;;;2.20;;
69327;SDS011;56472;52.114;5.492;2023-07-28T12:40:01;2.28;;;2.17;;
69327;SDS011;56472;52.114;5.492;2023-07-28T12:42:30;2.70;;;2.50;;
69327;SDS011;56472;52.114;5.492;2023-07-28T12:45:00;2.40;;;2.20;;
69327;SDS011;56472;52.114;5.492;2023-07-28T12:47:30;2.20;;;2.10;;
69327;SDS011;56472;52.114;5.492;2023-07-28T12:50:03;2.22;;;2.10;;
69327;SDS011;56472;52.114;5.492;2023-07-28T12:52:44;5.32;;;2.50;;
69327;SDS011;56472;52.114;5.492;2023-07-28T12:55:14;2.00;;;1.90;;
69327;SDS011;56472;52.114;5.492;2023-07-28T12:57:42;2.40;;;2.20;;
69327;SDS011;56472;52.114;5.492;2023-07-28T13:00:09;2.53;;;2.33;;
69327;SDS011;56472;52.114;5.492;2023-07-28T13:02:43;2.28;;;2.17;;
69327;SDS011;56472;52.114;5.492;2023-07-28T13:05:10;3.00;;;2.10;;
69327;SDS011;56472;52.114;5.492;2023-07-28T13:07:38;2.60;;;2.40;;
69327;SDS011;56472;52.114;5.492;2023-07-28T13:10:09;2.07;;;1.97;;
69327;SDS011;56472;52.114;5.492;2023-07-28T13:12:57;3.00;;;2.10;;
69327;SDS011;56472;52.114;5.492;2023-07-28T13:15:24;2.55;;;2.17;;
69327;SDS011;56472;52.114;5.492;2023-07-28T13:17:51;2.30;;;2.20;;
69327;SDS011;56472;52.114;5.492;2023-07-28T13:20:18;2.33;;;2.22;;
69327;SDS011;56472;52.114;5.492;2023-07-28T13:22:44;2.30;;;2.10;;
69327;SDS011;56472;52.114;5.492;2023-07-28T13:25:11;2.30;;;2.20;;
69327;SDS011;56472;52.114;5.492;2023-07-28T13:27:39;2.05;;;1.95;;
69327;SDS011;56472;52.114;5.492;2023-07-28T13:30:06;2.33;;;2.22;;
69327;SDS011;56472;52.114;5.492;2023-07-28T13:32:33;2.78;;;2.20;;
69327;SDS011;56472;52.114;5.492;2023-07-28T13:35:00;4.03;;;2.40;;
69327;SDS011;56472;52.114;5.492;2023-07-28T13:37:26;2.33;;;2.22;;
69327;SDS011;56472;52.114;5.492;2023-07-28T13:39:53;2.10;;;2.00;;
69327;SDS011;56472;52.114;5.492;2023-07-28T13:42:20;2.53;;;2.42;;
69327;SDS011;56472;52.114;5.492;2023-07-28T13:44:47;2.42;;;2.22;;
69327;SDS011;56472;52.114;5.492;2023-07-28T13:47:24;2.42;;;2.17;;
69327;SDS011;56472;52.114;5.492;2023-07-28T13:49:51;2.20;;;2.10;;
69327;SDS011;56472;52.114;5.492;2023-07-28T13:52:18;2.35;;;2.15;;
69327;SDS011;56472;52.114;5.492;2023-07-28T13:54:47;2.40;;;2.30;;
69327;SDS011;56472;52.114;5.492;2023-07-28T13:57:18;2.85;;;2.30;;
69327;SDS011;56472;52.114;5.492;2023-07-28T13:59:45;2.50;;;2.40;;
69327;SDS011;56472;52.114;5.492;2023-07-28T14:02:12;2.38;;;2.20;;
69327;SDS011;56472;52.114;5.492;2023-07-28T14:04:39;2.42;;;2.33;;
69327;SDS011;56472;52.114;5.492;2023-07-28T14:07:05;2.33;;;2.22;;
69327;SDS011;56472;52.114;5.492;2023-07-28T14:09:32;2.55;;;2.35;;
69327;SDS011;56472;52.114;5.492;2023-07-28T14:11:59;2.67;;;2.47;;
69327;SDS011;56472;52.114;5.492;2023-07-28T14:14:26;2.85;;;2.55;;
69327;SDS011;56472;52.114;5.492;2023-07-28T14:16:53;2.40;;;2.30;;
69327;SDS011;56472;52.114;5.492;2023-07-28T14:19:20;2.65;;;2.30;;
69327;SDS011;56472;52.114;5.492;2023-07-28T14:21:46;2.38;;;2.28;;
69327;SDS011;56472;52.114;5.492;2023-07-28T14:24:13;2.15;;;2.05;;
69327;SDS011;56472;52.114;5.492;2023-07-28T14:26:40;2.25;;;2.15;;
69327;SDS011;56472;52.114;5.492;2023-07-28T14:29:07;2.47;;;2.38;;
69327;SDS011;56472;52.114;5.492;2023-07-28T14:31:34;2.70;;;2.50;;
69327;SDS011;56472;52.114;5.492;2023-07-28T14:34:01;2.42;;;2.33;;
69327;SDS011;56472;52.114;5.492;2023-07-28T14:36:28;2.47;;;2.28;;
69327;SDS011;56472;52.114;5.492;2023-07-28T14:38:55;2.58;;;2.47;;
69327;SDS011;56472;52.114;5.492;2023-07-28T14:41:24;2.60;;;2.50;;
69327;SDS011;56472;52.114;5.492;2023-07-28T14:43:51;3.55;;;2.50;;
69327;SDS011;56472;52.114;5.492;2023-07-28T14:46:18;2.50;;;2.30;;
69327;SDS011;56472;52.114;5.492;2023-07-28T14:48:48;2.40;;;2.30;;
69327;SDS011;56472;52.114;5.492;2023-07-28T14:51:16;2.45;;;2.35;;
69327;SDS011;56472;52.114;5.492;2023-07-28T14:53:43;2.90;;;2.70;;
69327;SDS011;56472;52.114;5.492;2023-07-28T14:56:13;2.15;;;2.05;;
69327;SDS011;56472;52.114;5.492;2023-07-28T14:58:41;2.72;;;2.63;;
69327;SDS011;56472;52.114;5.492;2023-07-28T15:01:09;2.42;;;2.33;;
69327;SDS011;56472;52.114;5.492;2023-07-28T15:03:37;2.42;;;2.33;;